^^
Meteo Knjazevac Station Historical Data
Daily Summary for May 14, 2022 Units:  Both    English   Metric
Daily Weekly Monthly Yearly Custom
  High: Low: Average:
Temperature: 67.3 °F /  19.6 °C 64.3 °F /  17.9 °C 65.5 °F /  18.6 °C
Dew Point: 66 °F /  18.9 °C 64 °F /  17.8 °C 64.9 °F /  18.3 °C
Humidity: 99% 95% 98%
Wind Speed: 3.2mph /  5.1km/h - 1.6mph /  2.6km/h
Wind Gust: 4mph /  6.4km/h - -
Wind- - SW
Pressure: 29.92 in /  1013.1 hPa 29.90 in /  1012.4 hPa -
Precipitation: 0.26 in /  6.6 mm    
Historical Graphs
 
 
Tabular Data for May 14, 2022
Time Temperature Dew Point Pressure Wind Wind Speed Wind Gust Humidity Rainfall Rate (Hourly) solar Conditions
00:04 67.3 °F /  19.6 °C 65.8 °F /  18.8 °C 29.91in /  1012.8hPa West 1.3mph /  2.1km/h 1.1mph /  1.8km/h 95% 0.00in /  0mm 0 W/m2
00:09 67.3 °F /  19.6 °C 66 °F /  18.9 °C 29.91in /  1012.8hPa WNW 1.6mph /  2.6km/h 1.6mph /  2.6km/h 95.6% 0.00in /  0mm 0 W/m2
00:14 67.1 °F /  19.5 °C 65.8 °F /  18.8 °C 29.92in /  1013.1hPa West 1.8mph /  2.9km/h 2mph /  3.2km/h 96% 0.00in /  0mm 0 W/m2
00:19 66.9 °F /  19.4 °C 65.7 °F /  18.7 °C 29.92in /  1013.1hPa West 1.1mph /  1.8km/h 2mph /  3.2km/h 96% 0.00in /  0mm 0 W/m2
00:24 66.9 °F /  19.4 °C 65.7 °F /  18.7 °C 29.92in /  1013.1hPa NNW 1.9mph /  3.1km/h 2mph /  3.2km/h 96% 0.00in /  0mm 0 W/m2
00:29 66.9 °F /  19.4 °C 65.7 °F /  18.7 °C 29.91in /  1012.8hPa NNW 1.1mph /  1.8km/h 2mph /  3.2km/h 96% 0.00in /  0mm 0 W/m2
00:34 66.9 °F /  19.4 °C 65.7 °F /  18.7 °C 29.92in /  1013.1hPa NNW 2.2mph /  3.5km/h 1.6mph /  2.6km/h 96% 0.00in /  0mm 0 W/m2
00:39 66.9 °F /  19.4 °C 65.7 °F /  18.7 °C 29.91in /  1012.8hPa North 0.6mph /  1km/h 3mph /  4.8km/h 96% 0.00in /  0mm 0 W/m2
00:44 66.9 °F /  19.4 °C 65.7 °F /  18.7 °C 29.91in /  1012.8hPa North 1.8mph /  2.9km/h 2mph /  3.2km/h 96% 0.00in /  0mm 0 W/m2
00:49 66.9 °F /  19.4 °C 65.7 °F /  18.7 °C 29.91in /  1012.8hPa NNW 2.1mph /  3.4km/h 2mph /  3.2km/h 96% 0.00in /  0mm 0 W/m2
00:54 66.8 °F /  19.3 °C 65.6 °F /  18.7 °C 29.91in /  1012.8hPa NW 0.3mph /  0.5km/h 2mph /  3.2km/h 95.9% 0.00in /  0mm 0 W/m2
00:59 66.7 °F /  19.3 °C 65.3 °F /  18.5 °C 29.91in /  1012.8hPa Calm     95% 0.00in /  0mm 0 W/m2
01:04 66.7 °F /  19.3 °C 65.3 °F /  18.5 °C 29.91in /  1012.8hPa SW 0.4mph /  0.6km/h   95% 0.00in /  0mm 0 W/m2
01:09 66.7 °F /  19.3 °C 65.3 °F /  18.5 °C 29.91in /  1012.8hPa SW 1mph /  1.6km/h 1mph /  1.6km/h 95% 0.00in /  0mm 0 W/m2
01:14 66.7 °F /  19.3 °C 65.4 °F /  18.6 °C 29.91in /  1012.8hPa West 1.1mph /  1.8km/h 2mph /  3.2km/h 95.4% 0.00in /  0mm 0 W/m2
01:18 66.6 °F /  19.2 °C 65.6 °F /  18.7 °C 29.91in /  1012.8hPa NW 1.9mph /  3.1km/h 2mph /  3.2km/h 96.7% 0.00in /  0mm 0 W/m2
01:24 66.5 °F /  19.2 °C 65.5 °F /  18.6 °C 29.91in /  1012.8hPa North 0.6mph /  1km/h 2mph /  3.2km/h 96.7% 0.00in /  0mm 0 W/m2
01:29 66.4 °F /  19.1 °C 65.2 °F /  18.4 °C 29.91in /  1012.8hPa North 1.1mph /  1.8km/h 0.4mph /  0.6km/h 96% 0.00in /  0mm 0 W/m2
01:34 66.3 °F /  19.1 °C 65.4 °F /  18.6 °C 29.91in /  1012.8hPa NNE 1mph /  1.6km/h 2mph /  3.2km/h 96.8% 0.00in /  0mm 0 W/m2
01:39 66.2 °F /  19 °C 65.6 °F /  18.7 °C 29.91in /  1012.8hPa ESE 1.8mph /  2.9km/h 1.8mph /  2.9km/h 98% 0.00in /  0mm 0 W/m2
01:44 66 °F /  18.9 °C 65.6 °F /  18.7 °C 29.91in /  1012.8hPa SSE 2.3mph /  3.7km/h 1.8mph /  2.9km/h 98.6% 0.01in /  0.25mm 0 W/m2
01:49 66 °F /  18.9 °C 65.7 °F /  18.7 °C 29.91in /  1012.8hPa SSW 1.8mph /  2.9km/h 2mph /  3.2km/h 99% 0.01in /  0.25mm 0 W/m2
01:54 65.8 °F /  18.8 °C 65.6 °F /  18.7 °C 29.91in /  1012.8hPa West 3.2mph /  5.1km/h 1.8mph /  2.9km/h 99% 0.01in /  0.25mm 0 W/m2
01:58 65.8 °F /  18.8 °C 65.6 °F /  18.7 °C 29.91in /  1012.8hPa West 1.7mph /  2.7km/h 3mph /  4.8km/h 99% 0.01in /  0.25mm 0 W/m2
02:04 65.8 °F /  18.8 °C 65.5 °F /  18.6 °C 29.91in /  1012.8hPa West 2.1mph /  3.4km/h 2mph /  3.2km/h 99% 0.01in /  0.25mm 0 W/m2
02:09 65.7 °F /  18.7 °C 65.4 °F /  18.6 °C 29.91in /  1012.8hPa SW 2.2mph /  3.5km/h 2mph /  3.2km/h 99% 0.01in /  0.25mm 0 W/m2
02:14 65.5 °F /  18.6 °C 65.2 °F /  18.4 °C 29.91in /  1012.8hPa South 1.5mph /  2.4km/h 2mph /  3.2km/h 99% 0.01in /  0.25mm 0 W/m2
02:19 65.5 °F /  18.6 °C 65.2 °F /  18.4 °C 29.91in /  1012.8hPa Calm   2mph /  3.2km/h 99% 0.01in /  0.25mm 0 W/m2
02:24 65.4 °F /  18.6 °C 65.1 °F /  18.4 °C 29.91in /  1012.8hPa SSE 0.1mph /  0.2km/h   99% 0.01in /  0.25mm 0 W/m2
02:29 65.3 °F /  18.5 °C 65 °F /  18.3 °C 29.90in /  1012.4hPa SE 2.2mph /  3.5km/h 1.6mph /  2.6km/h 99% 0.01in /  0.25mm 0 W/m2
02:34 65.3 °F /  18.5 °C 65 °F /  18.3 °C 29.91in /  1012.8hPa NE 0.6mph /  1km/h 2mph /  3.2km/h 99% 0.01in /  0.25mm 0 W/m2
02:39 65.3 °F /  18.5 °C 65 °F /  18.3 °C 29.91in /  1012.8hPa North 0.8mph /  1.3km/h 2mph /  3.2km/h 99% 0.01in /  0.25mm 0 W/m2
02:44 65.3 °F /  18.5 °C 65 °F /  18.3 °C 29.90in /  1012.4hPa NNW 1.9mph /  3.1km/h 2mph /  3.2km/h 99% 0.01in /  0.25mm 0 W/m2
02:49 65.1 °F /  18.4 °C 64.8 °F /  18.2 °C 29.90in /  1012.4hPa WSW 2.2mph /  3.5km/h 2mph /  3.2km/h 99% 0.01in /  0.25mm 0 W/m2
02:54 65.1 °F /  18.4 °C 64.8 °F /  18.2 °C 29.90in /  1012.4hPa West 2.2mph /  3.5km/h 2mph /  3.2km/h 99% 0.01in /  0.25mm 0 W/m2
02:59 64.9 °F /  18.3 °C 64.7 °F /  18.2 °C 29.90in /  1012.4hPa WNW 2.8mph /  4.5km/h 2.7mph /  4.3km/h 99% 0.01in /  0.25mm 0 W/m2
03:04 64.9 °F /  18.3 °C 64.7 °F /  18.2 °C 29.90in /  1012.4hPa WNW 2.9mph /  4.7km/h 4mph /  6.4km/h 99% 0.01in /  0.25mm 0 W/m2
03:09 64.9 °F /  18.3 °C 64.6 °F /  18.1 °C 29.90in /  1012.4hPa WNW 2.3mph /  3.7km/h 3mph /  4.8km/h 99% 0.01in /  0.25mm 0 W/m2
03:14 64.8 °F /  18.2 °C 64.6 °F /  18.1 °C 29.90in /  1012.4hPa WNW 2mph /  3.2km/h 2mph /  3.2km/h 99% 0.01in /  0.25mm 0 W/m2
03:19 64.9 °F /  18.3 °C 64.6 °F /  18.1 °C 29.90in /  1012.4hPa NW 1.6mph /  2.6km/h 2mph /  3.2km/h 99% 0.01in /  0.25mm 0 W/m2
03:24 64.8 °F /  18.2 °C 64.5 °F /  18.1 °C 29.90in /  1012.4hPa NW 2.1mph /  3.4km/h 2mph /  3.2km/h 99% 0.01in /  0.25mm 0 W/m2
03:29 64.8 °F /  18.2 °C 64.6 °F /  18.1 °C 29.90in /  1012.4hPa West 2mph /  3.2km/h 2mph /  3.2km/h 99% 0.01in /  0.25mm 0 W/m2
03:34 64.8 °F /  18.2 °C 64.5 °F /  18.1 °C 29.90in /  1012.4hPa WSW 1.7mph /  2.7km/h 2mph /  3.2km/h 99% 0.00in /  0mm 0 W/m2
03:38 64.8 °F /  18.2 °C 64.5 °F /  18.1 °C 29.90in /  1012.4hPa SSW 2.1mph /  3.4km/h 2mph /  3.2km/h 99% 0.00in /  0mm 0 W/m2
03:44 64.8 °F /  18.2 °C 64.5 °F /  18.1 °C 29.90in /  1012.4hPa SE 2mph /  3.2km/h 2mph /  3.2km/h 99% 0.00in /  0mm 0 W/m2
03:49 64.8 °F /  18.2 °C 64.5 °F /  18.1 °C 29.90in /  1012.4hPa SW 2.3mph /  3.7km/h 2mph /  3.2km/h 99% 0.00in /  0mm 0 W/m2
03:54 64.7 °F /  18.2 °C 64.3 °F /  17.9 °C 29.90in /  1012.4hPa SW 2.1mph /  3.4km/h 1.8mph /  2.9km/h 99% 0.00in /  0mm 0 W/m2
03:59 64.6 °F /  18.1 °C 64.3 °F /  17.9 °C 29.90in /  1012.4hPa WSW 1.8mph /  2.9km/h 2mph /  3.2km/h 99% 0.00in /  0mm 0 W/m2
04:04 64.6 °F /  18.1 °C 64.3 °F /  17.9 °C 29.90in /  1012.4hPa WNW 1.2mph /  1.9km/h 2mph /  3.2km/h 99% 0.00in /  0mm 0 W/m2
04:09 64.6 °F /  18.1 °C 64.3 °F /  17.9 °C 29.90in /  1012.4hPa West 1.6mph /  2.6km/h 2mph /  3.2km/h 99% 0.00in /  0mm 0 W/m2
04:14 64.6 °F /  18.1 °C 64.3 °F /  17.9 °C 29.90in /  1012.4hPa SSW 1.2mph /  1.9km/h 0.2mph /  0.3km/h 99% 0.00in /  0mm 0 W/m2
04:19 64.6 °F /  18.1 °C 64.3 °F /  17.9 °C 29.90in /  1012.4hPa SSW 2mph /  3.2km/h 2mph /  3.2km/h 99% 0.00in /  0mm 0 W/m2
04:24 64.6 °F /  18.1 °C 64.3 °F /  17.9 °C 29.90in /  1012.4hPa West 1.3mph /  2.1km/h 2mph /  3.2km/h 99% 0.00in /  0mm 0 W/m2
04:29 64.6 °F /  18.1 °C 64.3 °F /  17.9 °C 29.90in /  1012.4hPa NW 1mph /  1.6km/h 2mph /  3.2km/h 99% 0.00in /  0mm 0 W/m2
04:34 64.6 °F /  18.1 °C 64.3 °F /  17.9 °C 29.90in /  1012.4hPa NNE 1.1mph /  1.8km/h 2mph /  3.2km/h 99% 0.00in /  0mm 0 W/m2
04:39 64.6 °F /  18.1 °C 64.3 °F /  17.9 °C 29.90in /  1012.4hPa ENE 1.2mph /  1.9km/h 1mph /  1.6km/h 99% 0.00in /  0mm 0 W/m2
04:44 64.6 °F /  18.1 °C 64.3 °F /  17.9 °C 29.90in /  1012.4hPa East 2mph /  3.2km/h 2mph /  3.2km/h 99% 0.01in /  0.25mm 0 W/m2
04:49 64.6 °F /  18.1 °C 64.3 °F /  17.9 °C 29.90in /  1012.4hPa ENE 1.4mph /  2.3km/h 2mph /  3.2km/h 99% 0.02in /  0.51mm 0 W/m2
04:53 64.6 °F /  18.1 °C 64.3 °F /  17.9 °C 29.90in /  1012.4hPa NNW 2.6mph /  4.2km/h 2.2mph /  3.5km/h 99% 0.04in /  1.02mm 0 W/m2
04:59 64.6 °F /  18.1 °C 64.3 °F /  17.9 °C 29.90in /  1012.4hPa SW 2.5mph /  4km/h 3mph /  4.8km/h 99% 0.10in /  2.54mm 0 W/m2
05:04 64.6 °F /  18.1 °C 64.3 °F /  17.9 °C 29.90in /  1012.4hPa SW 2mph /  3.2km/h 3mph /  4.8km/h 99% 0.16in /  4.06mm 0 W/m2
05:09 64.6 °F /  18.1 °C 64.3 °F /  17.9 °C 29.90in /  1012.4hPa North 0.4mph /  0.6km/h 2mph /  3.2km/h 99% 0.21in /  5.33mm 0 W/m2
05:14 64.4 °F /  18 °C 64.1 °F /  17.8 °C 29.90in /  1012.4hPa NNE 1.9mph /  3.1km/h 1.1mph /  1.8km/h 99% 0.22in /  5.59mm 0 W/m2
05:19 64.4 °F /  18 °C 64.1 °F /  17.8 °C 29.90in /  1012.4hPa ENE 0.8mph /  1.3km/h 2mph /  3.2km/h 99% 0.23in /  5.84mm 0 W/m2
05:24 64.3 °F /  17.9 °C 64 °F /  17.8 °C 29.90in /  1012.4hPa Calm   1mph /  1.6km/h 99% 0.25in /  6.35mm 0 W/m2
Knjazevac, Serbia
Compliments of Weather Underground - 2 mb